createdAt,value
2022-10-13T00:01:17.010Z,20.50
2022-10-13T00:03:47.809Z,16.85
2022-10-13T00:06:23.344Z,16.90
2022-10-13T00:08:50.963Z,15.47
2022-10-13T00:11:21.603Z,17.60
2022-10-13T00:13:49.976Z,15.20
2022-10-13T00:16:20.791Z,15.50
2022-10-13T00:18:49.601Z,15.73
2022-10-13T00:21:20.416Z,16.00
2022-10-13T00:23:51.666Z,15.70
2022-10-13T00:26:24.797Z,15.13
2022-10-13T00:28:53.225Z,15.27
2022-10-13T00:31:22.116Z,13.45
2022-10-13T00:33:50.208Z,13.20
2022-10-13T00:36:20.162Z,14.77
2022-10-13T00:38:47.732Z,13.00
2022-10-13T00:41:15.865Z,15.93
2022-10-13T00:44:05.285Z,14.13
2022-10-13T00:47:04.909Z,16.33
2022-10-13T00:49:33.570Z,15.77
2022-10-13T00:52:01.322Z,16.43
2022-10-13T00:54:29.909Z,14.30
2022-10-13T00:56:57.917Z,16.52
2022-10-13T00:59:29.361Z,13.90
2022-10-13T01:02:02.430Z,15.43
2022-10-13T01:04:43.596Z,14.00
2022-10-13T01:07:11.932Z,13.57
2022-10-13T01:09:39.515Z,13.57
2022-10-13T01:12:26.140Z,17.90
2022-10-13T01:15:02.932Z,15.27
2022-10-13T01:17:42.310Z,12.45
2022-10-13T01:20:50.173Z,13.52
2022-10-13T01:23:26.873Z,13.85
2022-10-13T01:25:57.068Z,15.00
2022-10-13T01:28:48.157Z,13.20
2022-10-13T01:31:26.818Z,16.08
2022-10-13T01:34:15.052Z,14.68
2022-10-13T01:36:54.241Z,16.35
2022-10-13T01:39:28.109Z,15.15
2022-10-13T01:42:13.291Z,13.90
2022-10-13T01:44:47.307Z,15.27
2022-10-13T01:47:16.801Z,16.93
2022-10-13T01:49:45.462Z,14.27
2022-10-13T01:52:17.524Z,13.52
2022-10-13T01:54:50.714Z,16.63
2022-10-13T01:57:42.721Z,16.85
2022-10-13T02:00:12.487Z,13.85
2022-10-13T02:03:13.700Z,13.68
2022-10-13T02:05:49.373Z,12.07
2022-10-13T02:08:30.018Z,14.20
2022-10-13T02:11:06.218Z,13.85
2022-10-13T02:13:36.918Z,14.25
2022-10-13T02:16:08.499Z,12.18
2022-10-13T02:18:37.223Z,17.60
2022-10-13T02:21:06.657Z,10.88
2022-10-13T02:23:34.409Z,12.82
2022-10-13T02:26:02.045Z,9.13
2022-10-13T02:28:29.914Z,12.90
2022-10-13T02:30:58.511Z,14.00
2022-10-13T02:33:29.196Z,12.57
2022-10-13T02:35:56.845Z,15.15
2022-10-13T02:38:24.405Z,15.18
2022-10-13T02:40:51.996Z,19.93
2022-10-13T02:43:23.866Z,14.80
2022-10-13T02:45:54.527Z,15.90
2022-10-13T02:48:22.211Z,15.55
2022-10-13T02:50:49.789Z,12.73
2022-10-13T02:53:17.403Z,16.38
2022-10-13T02:55:48.535Z,12.38
2022-10-13T02:58:16.227Z,16.53
2022-10-13T03:00:43.848Z,14.57
2022-10-13T03:03:12.463Z,17.08
2022-10-13T03:05:41.420Z,17.98
2022-10-13T03:08:08.926Z,18.83
2022-10-13T03:10:36.567Z,18.55
2022-10-13T03:13:04.149Z,15.65
2022-10-13T03:15:31.671Z,16.75
2022-10-13T03:17:59.794Z,15.57
2022-10-13T03:20:27.411Z,16.42
2022-10-13T03:22:54.905Z,17.10
2022-10-13T03:25:22.516Z,15.95
2022-10-13T03:27:51.173Z,19.25
2022-10-13T03:30:18.894Z,15.15
2022-10-13T03:32:46.512Z,16.70
2022-10-13T03:35:16.472Z,19.50
2022-10-13T03:37:44.096Z,16.67
2022-10-13T03:40:14.062Z,17.48
2022-10-13T03:42:44.039Z,15.00
2022-10-13T03:45:15.222Z,20.55
2022-10-13T03:47:46.896Z,18.52
2022-10-13T03:50:14.479Z,15.07
2022-10-13T03:52:42.024Z,18.65
2022-10-13T03:55:09.765Z,15.40
2022-10-13T03:57:37.345Z,18.30
2022-10-13T04:00:09.814Z,15.85
2022-10-13T04:02:40.087Z,17.33
2022-10-13T04:05:07.974Z,13.97
2022-10-13T04:07:35.531Z,16.40
2022-10-13T04:10:11.809Z,20.10
2022-10-13T04:12:40.902Z,17.20
2022-10-13T04:15:11.389Z,19.58
2022-10-13T04:17:38.945Z,20.45
2022-10-13T04:20:07.306Z,18.63
2022-10-13T04:22:34.969Z,18.90
2022-10-13T04:25:05.022Z,18.00
2022-10-13T04:27:38.229Z,18.42
2022-10-13T04:30:07.097Z,19.25
2022-10-13T04:32:34.741Z,22.63
2022-10-13T04:35:05.786Z,27.55
2022-10-13T04:37:33.365Z,20.45
2022-10-13T04:40:00.999Z,20.77
2022-10-13T04:42:30.911Z,19.20
2022-10-13T04:44:58.397Z,22.13
2022-10-13T04:47:25.959Z,21.30
2022-10-13T04:49:53.527Z,25.67
2022-10-13T04:52:23.634Z,19.55
2022-10-13T04:54:54.107Z,23.02
2022-10-13T04:57:21.799Z,24.17
2022-10-13T04:59:49.300Z,23.17
2022-10-13T05:02:17.079Z,23.80
2022-10-13T05:04:44.887Z,22.60
2022-10-13T05:07:18.019Z,22.10
2022-10-13T05:09:46.557Z,22.65
2022-10-13T05:12:14.131Z,23.45
2022-10-13T05:14:41.873Z,20.27
2022-10-13T05:17:11.807Z,30.37
2022-10-13T05:19:39.380Z,33.15
2022-10-13T05:22:09.395Z,35.08
2022-10-13T05:24:38.942Z,29.92
2022-10-13T05:27:10.092Z,29.95
2022-10-13T05:29:38.303Z,36.35
2022-10-13T05:32:06.240Z,28.42
2022-10-13T05:34:38.385Z,24.17
2022-10-13T05:37:05.907Z,29.63
2022-10-13T05:39:34.159Z,23.73
2022-10-13T05:42:01.738Z,25.27
2022-10-13T05:44:29.998Z,23.73
2022-10-13T05:46:57.633Z,28.50
2022-10-13T05:49:25.466Z,23.80
2022-10-13T05:52:01.396Z,29.97
2022-10-13T05:54:31.140Z,25.83
2022-10-13T05:57:07.599Z,25.05
2022-10-13T05:59:42.978Z,29.00
2022-10-13T06:02:12.758Z,28.38
2022-10-13T06:04:45.056Z,28.95
2022-10-13T06:07:14.258Z,33.25
2022-10-13T06:09:42.535Z,31.33
2022-10-13T06:12:10.586Z,31.47
2022-10-13T06:14:38.245Z,26.43
2022-10-13T06:17:07.966Z,30.75
2022-10-13T06:19:35.505Z,25.33
2022-10-13T06:22:09.396Z,27.00
2022-10-13T06:24:36.999Z,24.27
2022-10-13T06:27:07.868Z,29.77
2022-10-13T06:29:37.598Z,25.25
2022-10-13T06:32:05.603Z,29.38
2022-10-13T06:34:33.400Z,36.30
2022-10-13T06:37:00.977Z,35.45
2022-10-13T06:39:28.544Z,32.10
2022-10-13T06:41:56.267Z,31.05
2022-10-13T06:44:31.836Z,30.83
2022-10-13T06:47:03.388Z,24.63
2022-10-13T06:49:31.070Z,23.70
2022-10-13T06:51:58.879Z,25.70
2022-10-13T06:54:26.454Z,30.40
2022-10-13T06:56:54.035Z,26.85
2022-10-13T06:59:21.582Z,21.83
2022-10-13T07:01:49.904Z,18.48
2022-10-13T07:04:18.227Z,20.13
2022-10-13T07:06:46.446Z,22.45
2022-10-13T07:09:16.224Z,23.20
2022-10-13T07:11:47.776Z,18.80
2022-10-13T07:14:17.707Z,24.83
2022-10-13T07:16:45.301Z,20.17
2022-10-13T07:19:17.845Z,20.85
2022-10-13T07:21:45.392Z,19.83
2022-10-13T07:24:13.204Z,13.82
2022-10-13T07:26:40.806Z,18.13
2022-10-13T07:29:08.925Z,24.80
2022-10-13T07:31:37.940Z,19.88
2022-10-13T07:34:06.870Z,23.47
2022-10-13T07:36:35.824Z,17.80
2022-10-13T07:39:04.964Z,24.42
2022-10-13T07:41:33.792Z,18.35
2022-10-13T07:44:03.814Z,22.20
2022-10-13T07:46:31.490Z,21.92
2022-10-13T07:48:59.148Z,20.48
2022-10-13T07:51:27.065Z,17.98
2022-10-13T07:53:54.765Z,22.23
2022-10-13T07:56:22.326Z,20.73
2022-10-13T07:58:50.024Z,22.20
2022-10-13T08:01:18.074Z,23.95
2022-10-13T08:03:49.898Z,22.63
2022-10-13T08:06:19.157Z,20.15
2022-10-13T08:08:46.982Z,21.42
2022-10-13T08:11:18.213Z,19.58
2022-10-13T08:13:52.980Z,14.63
2022-10-13T08:16:23.615Z,19.42
2022-10-13T08:18:51.335Z,23.70
2022-10-13T08:21:53.173Z,19.20
2022-10-13T08:24:15.619Z,17.08
2022-10-13T08:26:44.882Z,20.90
2022-10-13T08:29:21.821Z,19.02
2022-10-13T08:31:53.192Z,19.83
2022-10-13T08:34:23.008Z,20.27
2022-10-13T08:36:53.714Z,23.15
2022-10-13T08:39:23.182Z,20.50
2022-10-13T08:41:51.082Z,18.07
2022-10-13T08:45:16.189Z,37.80
2022-10-13T08:47:46.937Z,32.75
2022-10-13T08:50:20.565Z,22.42
2022-10-13T08:53:02.074Z,25.25
2022-10-13T08:55:46.626Z,22.92
2022-10-13T08:58:22.932Z,21.48
2022-10-13T09:01:29.773Z,23.05
2022-10-13T09:04:01.092Z,19.40
2022-10-13T09:06:38.087Z,16.48
2022-10-13T09:09:09.952Z,16.43
2022-10-13T09:11:41.484Z,17.53
2022-10-13T09:14:13.126Z,24.60
2022-10-13T09:16:43.407Z,18.25
2022-10-13T09:19:36.719Z,23.38
2022-10-13T09:22:39.661Z,25.08
2022-10-13T09:25:07.222Z,16.58
2022-10-13T09:27:50.921Z,20.98
2022-10-13T09:30:47.243Z,22.08
2022-10-13T09:33:21.988Z,18.02
2022-10-13T09:36:06.365Z,22.63
2022-10-13T09:38:34.867Z,32.23
2022-10-13T09:41:13.718Z,26.73
2022-10-13T09:43:56.873Z,21.27
2022-10-13T09:46:58.577Z,21.17
2022-10-13T09:49:41.795Z,24.73
2022-10-13T09:52:13.697Z,27.83
2022-10-13T09:54:52.141Z,30.60
2022-10-13T09:57:26.358Z,22.27
2022-10-13T10:00:13.855Z,33.17
2022-10-13T10:03:15.661Z,26.37
2022-10-13T10:06:16.279Z,24.25
2022-10-13T10:09:05.990Z,26.25
2022-10-13T10:11:39.797Z,27.23
2022-10-13T10:14:25.795Z,26.95
2022-10-13T10:17:11.758Z,30.08
2022-10-13T10:19:51.524Z,23.73
2022-10-13T10:22:48.220Z,24.38
2022-10-13T10:25:22.982Z,22.30
2022-10-13T10:28:47.170Z,31.17
2022-10-13T10:31:30.205Z,24.73
2022-10-13T10:34:26.332Z,29.67
2022-10-13T10:37:05.234Z,27.92
2022-10-13T10:40:04.003Z,22.98
2022-10-13T10:42:55.857Z,23.50
2022-10-13T10:45:33.804Z,27.00
2022-10-13T10:48:18.032Z,24.50
2022-10-13T10:50:46.671Z,24.35
2022-10-13T10:53:28.329Z,21.80
2022-10-13T10:56:04.166Z,22.53
2022-10-13T10:58:57.173Z,26.85
2022-10-13T11:01:28.318Z,21.38
2022-10-13T11:04:07.503Z,20.02
2022-10-13T11:06:37.409Z,22.90
2022-10-13T11:09:06.334Z,21.80
2022-10-13T11:11:37.981Z,19.75
2022-10-13T11:14:11.346Z,24.20
2022-10-13T11:16:38.890Z,20.35
2022-10-13T11:19:33.404Z,18.60
2022-10-13T11:22:00.902Z,20.27
2022-10-13T11:24:37.547Z,40.75
2022-10-13T11:27:17.238Z,20.58
2022-10-13T11:29:44.964Z,23.00
2022-10-13T11:32:41.265Z,24.15
2022-10-13T11:35:08.952Z,19.90
2022-10-13T11:38:06.944Z,17.70
2022-10-13T11:41:16.410Z,16.55
2022-10-13T11:43:59.410Z,17.10
2022-10-13T11:46:48.615Z,17.30
2022-10-13T11:49:18.999Z,25.63
2022-10-13T11:52:03.467Z,30.60
2022-10-13T11:54:39.372Z,29.48
2022-10-13T11:57:25.304Z,17.20
2022-10-13T11:59:55.652Z,16.87
2022-10-13T12:02:49.751Z,22.80
2022-10-13T12:05:24.746Z,19.23
2022-10-13T12:08:01.085Z,19.40
2022-10-13T12:10:36.384Z,19.25
2022-10-13T12:13:07.622Z,15.48
2022-10-13T12:15:37.335Z,12.43
2022-10-13T12:18:24.197Z,17.67
2022-10-13T12:20:52.017Z,13.55
2022-10-13T12:23:19.448Z,13.88
2022-10-13T12:25:50.319Z,13.68
2022-10-13T12:28:19.828Z,11.00
2022-10-13T12:30:56.370Z,20.57
2022-10-13T12:33:36.554Z,17.87
2022-10-13T12:36:19.816Z,17.80
2022-10-13T12:38:53.171Z,19.75
2022-10-13T12:41:27.016Z,17.05
2022-10-13T12:43:55.729Z,19.55
2022-10-13T12:46:45.865Z,19.47
2022-10-13T12:49:13.770Z,22.08
2022-10-13T12:51:44.296Z,23.90
2022-10-13T12:54:21.201Z,22.90
2022-10-13T12:56:53.762Z,26.55
2022-10-13T12:59:28.166Z,20.95
2022-10-13T13:02:01.230Z,19.20
2022-10-13T13:04:37.813Z,19.30
2022-10-13T13:07:06.726Z,24.92
2022-10-13T13:09:39.297Z,21.08
2022-10-13T13:12:12.866Z,19.10
2022-10-13T13:14:43.311Z,23.10
2022-10-13T13:17:33.024Z,22.53
2022-10-13T13:20:25.172Z,38.73
2022-10-13T13:22:53.376Z,28.20
2022-10-13T13:25:21.236Z,26.10
2022-10-13T13:27:51.138Z,23.70
2022-10-13T13:30:21.269Z,25.42
2022-10-13T13:32:49.366Z,18.38
2022-10-13T13:35:17.490Z,15.20
2022-10-13T13:37:50.685Z,17.07
2022-10-13T13:40:24.461Z,19.38
2022-10-13T13:42:52.508Z,15.05
2022-10-13T13:45:22.462Z,16.40
2022-10-13T13:47:50.645Z,16.35
2022-10-13T13:50:26.573Z,15.95
2022-10-13T13:52:58.082Z,15.80
2022-10-13T13:55:26.904Z,16.93
2022-10-13T13:57:54.526Z,15.27
2022-10-13T14:00:22.916Z,15.68
2022-10-13T14:02:56.760Z,17.70
2022-10-13T14:05:24.717Z,15.05
2022-10-13T14:07:58.117Z,13.10
2022-10-13T14:10:27.145Z,12.63
2022-10-13T14:12:54.693Z,13.13
2022-10-13T14:15:25.870Z,10.75
2022-10-13T14:17:56.491Z,14.80
2022-10-13T14:20:24.295Z,13.32
2022-10-13T14:22:51.863Z,12.85
2022-10-13T14:25:19.761Z,14.50
2022-10-13T14:27:47.384Z,13.20
2022-10-13T14:30:15.319Z,15.50
2022-10-13T14:32:43.200Z,18.15
2022-10-13T14:35:10.761Z,19.45
2022-10-13T14:37:38.740Z,16.75
2022-10-13T14:40:07.062Z,13.82
2022-10-13T14:42:35.826Z,15.77
2022-10-13T14:45:06.725Z,14.57
2022-10-13T14:47:34.329Z,13.20
2022-10-13T14:50:02.163Z,16.13
2022-10-13T14:52:29.707Z,14.60
2022-10-13T14:54:57.268Z,14.70
2022-10-13T14:57:24.804Z,14.70
2022-10-13T15:00:01.698Z,15.05
2022-10-13T15:02:30.089Z,13.77
2022-10-13T15:04:58.066Z,13.90
2022-10-13T15:07:25.706Z,20.10
2022-10-13T15:10:04.359Z,15.05
2022-10-13T15:12:33.502Z,16.00
2022-10-13T15:15:01.114Z,18.40
2022-10-13T15:17:30.851Z,17.50
2022-10-13T15:19:58.579Z,11.90
2022-10-13T15:22:26.434Z,14.75
2022-10-13T15:24:54.104Z,14.48
2022-10-13T15:27:21.779Z,11.65
2022-10-13T15:29:50.714Z,12.20
2022-10-13T15:32:19.202Z,12.88
2022-10-13T15:34:55.360Z,12.43
2022-10-13T15:37:22.881Z,13.65
2022-10-13T15:39:56.060Z,12.90
2022-10-13T15:42:24.940Z,11.43
2022-10-13T15:47:39.932Z,10.38
2022-10-13T15:50:09.062Z,11.03
2022-10-13T15:52:40.803Z,13.30
2022-10-13T15:55:10.011Z,9.38
2022-10-13T15:57:38.229Z,12.65
2022-10-13T16:00:08.203Z,11.50
2022-10-13T16:02:43.334Z,11.57
2022-10-13T16:05:13.169Z,10.17
2022-10-13T16:07:41.669Z,11.30
2022-10-13T16:10:12.110Z,15.00
2022-10-13T16:12:39.909Z,11.52
2022-10-13T16:15:08.648Z,13.90
2022-10-13T16:17:36.587Z,11.23
2022-10-13T16:20:06.380Z,16.43
2022-10-13T16:22:33.919Z,16.15
2022-10-13T16:25:01.522Z,14.25
2022-10-13T16:27:29.210Z,15.32
2022-10-13T16:29:56.783Z,14.38
2022-10-13T16:32:24.327Z,14.05
2022-10-13T16:34:52.213Z,17.20
2022-10-13T16:37:22.997Z,12.13
2022-10-13T16:39:52.107Z,14.70
2022-10-13T16:42:20.124Z,13.60
2022-10-13T16:44:47.840Z,14.68
2022-10-13T16:47:18.435Z,10.45
2022-10-13T16:49:47.268Z,11.70
2022-10-13T16:52:16.941Z,11.37
2022-10-13T16:54:44.539Z,8.93
2022-10-13T16:57:13.006Z,10.80
2022-10-13T16:59:40.902Z,12.18
2022-10-13T17:02:14.464Z,10.02
2022-10-13T17:04:43.094Z,9.80
2022-10-13T17:07:10.721Z,15.55
2022-10-13T17:09:38.485Z,10.73
2022-10-13T17:12:06.332Z,13.32
2022-10-13T17:14:36.484Z,10.65
2022-10-13T17:17:04.475Z,11.38
2022-10-13T17:19:32.219Z,11.20
2022-10-13T17:22:02.020Z,11.57
2022-10-13T17:24:30.167Z,11.90
2022-10-13T17:26:57.784Z,11.77
2022-10-13T17:29:25.504Z,17.10
2022-10-13T17:31:54.092Z,12.20
2022-10-13T17:34:22.621Z,12.48
2022-10-13T17:36:51.948Z,16.02
2022-10-13T17:39:19.535Z,11.07
2022-10-13T17:41:47.332Z,13.00
2022-10-13T17:44:20.221Z,13.73
2022-10-13T17:46:51.925Z,11.70
2022-10-13T17:49:19.459Z,15.90
2022-10-13T17:51:51.166Z,15.45
2022-10-13T17:54:19.724Z,17.45
2022-10-13T17:56:48.581Z,15.68
2022-10-13T17:59:17.787Z,13.38
2022-10-13T18:01:45.952Z,17.00
2022-10-13T18:04:17.222Z,16.88
2022-10-13T18:06:45.601Z,14.47
2022-10-13T18:09:23.428Z,14.10
2022-10-13T18:11:53.877Z,10.30
2022-10-13T18:14:23.694Z,10.23
2022-10-13T18:16:54.465Z,11.00
2022-10-13T18:19:23.764Z,11.00
2022-10-13T18:21:53.109Z,12.70
2022-10-13T18:24:20.705Z,13.30
2022-10-13T18:26:48.565Z,12.18
2022-10-13T18:29:16.666Z,11.77
2022-10-13T18:31:44.364Z,10.80
2022-10-13T18:34:14.867Z,10.75
2022-10-13T18:36:44.978Z,12.98
2022-10-13T18:39:14.318Z,12.48
2022-10-13T18:41:46.214Z,19.35
2022-10-13T18:44:14.202Z,13.93
2022-10-13T18:46:42.721Z,11.80
2022-10-13T18:49:14.986Z,13.88
2022-10-13T18:51:44.257Z,12.05
2022-10-13T18:54:13.394Z,12.73
2022-10-13T18:56:41.008Z,10.85
2022-10-13T18:59:10.516Z,10.57
2022-10-13T19:01:39.064Z,10.07
2022-10-13T19:04:07.027Z,8.90
2022-10-13T19:06:35.698Z,9.38
2022-10-13T19:09:06.408Z,10.38
2022-10-13T19:11:37.424Z,8.98
2022-10-13T19:14:07.152Z,7.95
2022-10-13T19:16:38.434Z,9.23
2022-10-13T19:19:08.161Z,9.10
2022-10-13T19:21:39.499Z,9.27
2022-10-13T19:24:10.054Z,7.57
2022-10-13T19:26:38.948Z,8.57
2022-10-13T19:29:09.599Z,9.82
2022-10-13T19:31:38.835Z,8.45
2022-10-13T19:34:10.639Z,7.32
2022-10-13T19:36:42.347Z,11.35
2022-10-13T19:39:21.383Z,12.13
2022-10-13T19:41:49.960Z,6.93
2022-10-13T19:44:19.223Z,6.15
2022-10-13T19:46:48.740Z,10.02
2022-10-13T19:49:19.598Z,8.98
2022-10-13T19:51:49.171Z,9.52
2022-10-13T19:54:18.331Z,8.17
2022-10-13T19:56:48.402Z,9.17
2022-10-13T19:59:17.860Z,7.70
2022-10-13T20:01:45.567Z,9.38
2022-10-13T20:04:14.685Z,8.57
2022-10-13T20:06:44.573Z,10.05
2022-10-13T20:09:12.305Z,9.48
2022-10-13T20:11:39.950Z,8.23
2022-10-13T20:14:08.387Z,7.43
2022-10-13T20:16:39.525Z,8.65
2022-10-13T20:19:07.274Z,10.05
2022-10-13T20:21:35.558Z,6.15
2022-10-13T20:24:03.174Z,7.15
2022-10-13T20:26:32.821Z,8.00
2022-10-13T20:29:00.617Z,12.02
2022-10-13T20:31:28.349Z,9.60
2022-10-13T20:33:58.262Z,12.10
2022-10-13T20:36:34.816Z,9.52
2022-10-13T20:39:09.245Z,12.90
2022-10-13T20:41:39.507Z,10.97
2022-10-13T20:44:07.079Z,8.03
2022-10-13T20:46:34.874Z,9.93
2022-10-13T20:49:12.917Z,8.93
2022-10-13T20:51:42.917Z,13.13
2022-10-13T20:54:12.868Z,8.73
2022-10-13T20:56:43.543Z,10.70
2022-10-13T20:59:17.134Z,8.50
2022-10-13T21:01:44.649Z,8.88
2022-10-13T21:04:12.295Z,10.38
2022-10-13T21:06:41.149Z,11.35
2022-10-13T21:09:08.955Z,11.05
2022-10-13T21:11:39.809Z,12.00
2022-10-13T21:14:09.649Z,10.57
2022-10-13T21:16:38.100Z,12.73
2022-10-13T21:19:09.236Z,9.80
2022-10-13T21:21:37.014Z,14.10
2022-10-13T21:24:07.108Z,11.88
2022-10-13T21:26:35.916Z,10.38
2022-10-13T21:29:04.102Z,10.25
2022-10-13T21:31:31.886Z,10.43
2022-10-13T21:34:01.862Z,10.52
2022-10-13T21:36:31.673Z,10.93
2022-10-13T21:39:05.138Z,11.82
2022-10-13T21:41:33.772Z,8.18
2022-10-13T21:44:01.593Z,8.15
2022-10-13T21:46:33.672Z,12.30
2022-10-13T21:49:03.878Z,7.87
2022-10-13T21:51:37.174Z,7.80
2022-10-13T21:54:15.345Z,10.10
2022-10-13T21:56:43.362Z,8.20
2022-10-13T21:59:12.670Z,10.20
2022-10-13T22:01:41.737Z,9.98
2022-10-13T22:04:14.463Z,8.70
2022-10-13T22:06:42.505Z,9.57
2022-10-13T22:09:10.671Z,9.20
2022-10-13T22:11:39.238Z,10.43
2022-10-13T22:14:14.527Z,12.02
2022-10-13T22:16:45.788Z,7.90
2022-10-13T22:19:14.845Z,10.73
2022-10-13T22:21:44.702Z,10.45
2022-10-13T22:24:15.474Z,10.73
2022-10-13T22:26:44.356Z,13.35
2022-10-13T22:29:14.592Z,8.88
2022-10-13T22:31:44.167Z,12.88
2022-10-13T22:34:14.598Z,11.88
2022-10-13T22:36:45.001Z,9.65
2022-10-13T22:39:13.325Z,11.53
2022-10-13T22:41:41.382Z,10.80
2022-10-13T22:44:09.875Z,11.18
2022-10-13T22:46:38.439Z,11.52
2022-10-13T22:49:07.288Z,11.65
2022-10-13T22:51:36.618Z,11.40
2022-10-13T22:54:05.962Z,12.82
2022-10-13T22:56:35.182Z,10.17
2022-10-13T22:59:06.806Z,12.07
2022-10-13T23:01:35.182Z,12.25
2022-10-13T23:04:04.331Z,10.10
2022-10-13T23:06:33.886Z,8.25
2022-10-13T23:09:05.072Z,9.32
2022-10-13T23:11:33.231Z,10.00
2022-10-13T23:14:01.713Z,11.25
2022-10-13T23:16:29.647Z,9.70
2022-10-13T23:18:57.194Z,9.82
2022-10-13T23:21:28.231Z,7.30
2022-10-13T23:24:03.457Z,11.65
2022-10-13T23:26:31.658Z,9.82
2022-10-13T23:28:59.524Z,8.55
2022-10-13T23:31:27.861Z,13.98
2022-10-13T23:33:55.574Z,6.07
2022-10-13T23:36:26.029Z,11.13
2022-10-13T23:39:05.077Z,8.85
2022-10-13T23:41:33.166Z,8.10
2022-10-13T23:44:01.007Z,8.30
2022-10-13T23:46:28.732Z,7.38
2022-10-13T23:48:56.544Z,8.23
2022-10-13T23:51:25.840Z,7.13
2022-10-13T23:53:54.849Z,7.33
2022-10-13T23:56:22.969Z,10.27
2022-10-13T23:58:50.768Z,11.15
